Historyczne dane pomiarowe

Dodano dane terminowe – wersja testowa.

Dane z okresu 1951-2019

Wersja bazy: 1.34 [2019-03-16, lista zmian], aktualizacja planowana na 2019-04-15

Dane meteo z obszaru Polski uzyskane na podstawie danych udostępnionych przez Instytut Meteorologii i Gospodarki Wodnej – Państwowy Instytut Badawczy.

 

Wybierz Datę:    

       

TemperaturaWilgotnośćWiatrCiśnienieOpadyŚniegCzas trwania zjawisk
 Stacja t tx tn tng RH VA  wxwx mslp ppp RRR   cm mm wxwxwxwxwxwxwx
2019-10-31 1.5 6.5 -2.2 -4.3 83.4 5.7- 1.8--1028.71001.1 0.0 0.0 0.0x- 7.9-------
2019-10-30 3.2 7.6 -0.7 -0.6 83.5 6.4- 2.4--1028.81001.4 0.0 0.0 0.0x- 5.0-------
2019-10-29 5.2 8.3 3.1 1.8 87.6 7.7- 2.3--1021.7 994.6 0.2 0.2 0.0x- 2.6-------
2019-10-28 7.7 14.5 6.4 6.0 82.9 8.7- 2.9--1019.4 992.7 0.0 0.0 0.0x- 5.0-------
2019-10-27 13.4 21.4 7.9 5.2 75.3------- 4.7 0.0 4.7x- 9.4-------
2019-10-26 11.5 18.0 5.4 4.9 88.5 12.0- 2.1--1022.1 995.7 0.0 0.0 0.0x- 6.9-------
2019-10-25 13.6 21.1 7.7 4.8 77.5 11.9- 2.6--1019.6 993.4 0.0 0.0 0.0x- 9.3-------
2019-10-24 14.6 22.3 7.8 7.6 79.4 13.0- 2.1--1016.1 990.1 0.0 0.0 0.0x- 9.0-------
2019-10-23 11.1 14.4 9.7 7.1 96.8 12.8- 1.3--1022.3 995.8 0.3 0.0 0.3x- 0.0-------
2019-10-22 13.4 19.6 8.2 5.3 88.5 13.6- 1.5--1023.0 996.7 0.0 0.0 0.0x- 8.4-------
2019-10-21 15.0 21.7 9.7 6.2 75.9 12.8- 1.9--1019.8 993.7 0.0 0.0 0.0x- 9.4-------
2019-10-20 14.7 22.1 9.1 6.5 75.4 12.3- 2.3--1016.4 990.4 0.0 0.0 0.0x- 9.8-------
2019-10-19 13.5 19.9 7.1 5.9 80.0 12.2- 1.8--1015.3 989.2 0.0 0.0 0.0x- 6.8-------
2019-10-18 12.9 19.4 6.5 4.1 76.1 11.1- 1.9--1016.2 990.0 0.0 0.0 0.0x- 8.9-------
2019-10-17 12.8 18.2 7.3 6.2 75.0 10.8- 2.4--1018.9 992.6 0.0 0.0 0.0x- 9.7-------
2019-10-16 15.2 22.9 10.5 8.9 75.0 12.7- 3.0--1012.9 987.0 2.2 1.8 0.4x- 9.1-------
2019-10-15 16.1 23.0 10.0 7.9 70.1 12.4- 3.5--1014.7 988.8 0.0 0.0 0.0x- 9.7-------
2019-10-14 15.0 22.1 8.8 6.7 78.6 13.1- 2.4--1019.2 993.1 0.0 0.0 0.0x- 10.2-------
2019-10-13 14.5 21.3 8.5 7.7 71.4 11.6- 3.6--1019.5 993.3 0.0 0.0 0.0x- 9.6-------
2019-10-12 13.1 20.3 7.8 6.3 72.4 10.7- 3.8--1017.0 990.8 0.0 0.0 0.0x- 9.7-------
2019-10-11 10.1 15.4 5.8 5.1 81.0 9.8- 3.4--1019.6 993.0 0.0 0.0 0.0x- 8.4-------
2019-10-10 10.3 14.1 8.4 6.9 85.5 10.6- 3.5--1012.1 985.8 3.9 0.4 3.5x- 3.2-------
2019-10-09 9.8 14.2 7.1 6.8 85.3 10.3- 3.9--1011.7 985.3 6.0 0.1 5.9x- 3.2-------
2019-10-08 5.6 9.7 -1.0 -1.5 71.6 6.4- 3.5--1016.8 989.9 0.5 0.0 0.5x- 4.4-------
2019-10-07 3.5 9.0 -1.6 -3.7 75.6 5.9- 1.9--1020.1 992.9 0.0 0.0 0.0x- 3.5-------
2019-10-06 5.0 8.5 2.6 1.7 80.3 7.0- 3.1--1017.8 990.8 0.0 0.0 0.0x- 4.4-------
2019-10-05 7.5 10.8 5.8 5.4 88.4 9.1- 2.0--1011.0 984.5 4.8 3.2 1.6x- 2.5-------
2019-10-04 7.8 11.4 3.6 2.7 86.3 9.1- 1.6--1013.5 986.9 0.0 0.0 0.0x- 0.5-------
2019-10-03 8.5 14.4 7.7 6.9 86.9 9.6- 3.0--1011.2 984.8 0.1 0.1 0.0x- 1.9-------
2019-10-02 15.1 21.8 11.6 10.4 78.4 13.3- 3.3--1003.8 978.1 10.1 2.7 7.4x- 2.4-------
2019-10-01 14.2 19.3 8.4 7.7 71.1 11.2- 4.4--1008.2 982.4 0.0 0.0 0.0x- 10.0-------
2019-09-30 14.9 20.4 11.7 10.3 76.5 12.9- 6.0--1000.8 975.2 5.8 4.0 0.0x- 3.7-------
2019-09-29 13.7 19.3 9.6 9.3 82.4 12.6- 3.4--1010.6 984.6 0.0 0.0 0.0x- 6.0-------
2019-09-28 14.9 19.0 13.5 12.5 89.9 15.1- 2.4--1013.7 987.8 0.0 0.0 0.0x- 1.6-------
2019-09-27 15.0 19.4 11.1 9.8 85.1 14.3- 1.9--1015.0 989.0 4.5 0.0 4.5x- 7.3-------
2019-09-26 14.3 16.7 13.1 12.9 93.3 15.1- 2.3--1011.1 985.2 0.0 0.0 0.0x- 1.0-------
2019-09-25 11.8 15.5 7.5 5.4 91.3 12.8- 2.5--1010.4 984.2 8.5 0.5 8.0x- 1.1-------
2019-09-24 10.9 16.7 8.2 8.4 86.1 11.1- 1.6--1016.5 990.1 0.0 0.0 0.0x- 6.4-------
2019-09-23 11.2 18.9 5.8 3.2 81.4 10.7- 3.0--1017.2 990.9 0.0 0.0 0.0x- 10.6-------
2019-09-22 13.1 20.4 5.4 4.4 71.8 10.4- 2.4--1018.9 992.6 0.0 0.0 0.0x- 11.6-------
2019-09-21 11.2 16.6 6.2 3.4 78.1 10.3- 2.8--1024.5 997.9 0.0 0.0 0.0x- 4.9-------
2019-09-20 8.6 14.2 3.6 2.6 72.3 7.8- 3.0--1025.6 998.7 0.9 0.9 0.0x- 8.3-------
2019-09-19 9.0 14.5 6.8 6.1 76.4 8.6- 3.3--1022.7 996.0 0.0 0.0 0.0x- 8.4-------
2019-09-18 9.5 14.3 7.1 6.7 71.9 8.4- 5.6--1015.7 989.3 0.0 0.0 0.0x- 6.3-------
2019-09-17 11.4 15.2 7.9 5.9 74.1 9.8- 3.5--1012.1 985.9 3.4 0.0 3.4x- 3.9-------
2019-09-16 14.3 18.3 10.6 10.2 74.9 12.1- 3.3--1015.6 989.5 0.0 0.0 0.0x- 2.2-------
2019-09-15 13.3 19.6 5.5 4.9 70.4 10.4- 3.1--1023.5 997.2 0.0 0.0 0.0x- 10.9-------
2019-09-14 14.0 18.2 10.1 9.1 70.3 11.0- 3.0--1030.61004.2 0.0 0.0 0.0x- 10.5-------
2019-09-13 17.2 23.1 11.5 10.0 76.8 14.9- 2.5--1027.41001.3 0.0 0.0 0.0x- 6.6-------
2019-09-12 17.5 24.6 10.3 8.5 72.8 14.1- 2.0--1027.01001.0 0.0 0.0 0.0x- 12.0-------
2019-09-11 16.8 23.8 9.7 7.5 72.0 13.4- 1.5--1024.3 998.2 0.0 0.0 0.0x- 11.6-------
2019-09-10 14.6--- 79.5 12.9- 2.6--1019.3 993.2 0.0 0.0 0.0x- 6.0-------
2019-09-09 18.6 25.1 14.6 14.0 75.1 15.5- 3.0--1013.6 988.0 4.8 0.0 4.8x- 7.9-------
2019-09-08 18.1 22.5 15.4 15.3 82.5 16.8- 2.0--1017.4 991.6 0.1 0.1 0.0x- 7.9-------
2019-09-07 17.8 23.2 12.0 10.6 69.4 14.2- 2.5--1018.6 992.8 3.4 0.0 3.4x- 6.4-------
2019-09-06 16.6 20.3 14.3 12.5 67.8 12.6- 3.0--1021.6 995.6 0.0 0.0 0.0x- 9.6-------
2019-09-05 17.2 23.9 10.0 9.0 68.6 13.0- 2.0--1015.8 990.1 0.0 0.0 0.0x- 12.5-------
2019-09-04 15.5 21.7 9.8 9.3 77.5 13.3- 1.6--1020.4 994.3 0.0 0.0 0.0x- 8.9-------
2019-09-03 13.8 18.7 12.6 12.4 93.3 14.6- 3.0--1022.2 996.0 4.2 4.2 0.0x- 1.7-------
2019-09-02 20.0 25.4 17.2 15.8 84.0 19.4- 3.5--1014.9 989.3 17.6 0.0 17.6x- 6.2-------
100.9 ms

 

Źródłem pochodzenia danych jest Instytut Meteorologii i Gospodarki Wodnej – Państwowy Instytut Badawczy. Dane Instytutu Meteorologii i Gospodarki Wodnej – Państwowego Instytutu Badawczego zostały przetworzone.

Dane źródłowe można odnaleźć na stronie https://dane.imgw.pl